sensor_id;sensor_type;location;lat;lon;timestamp;P1;durP1;ratioP1;P2;durP2;ratioP2
13785;SDS011;47474;48.824;9.384;2023-05-07T00:00:01;2.90;;;2.60;;
13785;SDS011;47474;48.824;9.384;2023-05-07T00:02:28;3.00;;;2.80;;
13785;SDS011;47474;48.824;9.384;2023-05-07T00:04:54;3.03;;;2.75;;
13785;SDS011;47474;48.824;9.384;2023-05-07T00:07:21;3.17;;;2.80;;
13785;SDS011;47474;48.824;9.384;2023-05-07T00:09:47;4.80;;;2.78;;
13785;SDS011;47474;48.824;9.384;2023-05-07T00:12:14;3.55;;;3.00;;
13785;SDS011;47474;48.824;9.384;2023-05-07T00:14:40;4.85;;;2.88;;
13785;SDS011;47474;48.824;9.384;2023-05-07T00:17:08;4.38;;;2.53;;
13785;SDS011;47474;48.824;9.384;2023-05-07T00:19:35;2.50;;;2.30;;
13785;SDS011;47474;48.824;9.384;2023-05-07T00:22:01;3.42;;;2.75;;
13785;SDS011;47474;48.824;9.384;2023-05-07T00:24:27;4.82;;;2.83;;
13785;SDS011;47474;48.824;9.384;2023-05-07T00:26:54;2.65;;;2.45;;
13785;SDS011;47474;48.824;9.384;2023-05-07T00:29:23;2.58;;;2.38;;
13785;SDS011;47474;48.824;9.384;2023-05-07T00:31:49;4.13;;;2.53;;
13785;SDS011;47474;48.824;9.384;2023-05-07T00:34:18;4.93;;;2.88;;
13785;SDS011;47474;48.824;9.384;2023-05-07T00:36:45;4.05;;;2.45;;
13785;SDS011;47474;48.824;9.384;2023-05-07T00:39:11;5.30;;;2.55;;
13785;SDS011;47474;48.824;9.384;2023-05-07T00:41:38;3.35;;;3.05;;
13785;SDS011;47474;48.824;9.384;2023-05-07T00:44:05;4.88;;;2.90;;
13785;SDS011;47474;48.824;9.384;2023-05-07T00:46:32;2.83;;;2.55;;
13785;SDS011;47474;48.824;9.384;2023-05-07T00:48:59;7.32;;;2.72;;
13785;SDS011;47474;48.824;9.384;2023-05-07T00:51:27;3.75;;;2.95;;
13785;SDS011;47474;48.824;9.384;2023-05-07T00:53:54;2.50;;;2.30;;
13785;SDS011;47474;48.824;9.384;2023-05-07T00:56:20;3.28;;;2.50;;
13785;SDS011;47474;48.824;9.384;2023-05-07T00:58:47;4.35;;;2.67;;
13785;SDS011;47474;48.824;9.384;2023-05-07T01:01:14;3.15;;;2.85;;
13785;SDS011;47474;48.824;9.384;2023-05-07T01:03:41;3.38;;;2.63;;
13785;SDS011;47474;48.824;9.384;2023-05-07T01:06:08;2.83;;;2.63;;
13785;SDS011;47474;48.824;9.384;2023-05-07T01:08:39;2.92;;;2.33;;
13785;SDS011;47474;48.824;9.384;2023-05-07T01:11:06;2.63;;;2.38;;
13785;SDS011;47474;48.824;9.384;2023-05-07T01:13:33;3.00;;;2.70;;
13785;SDS011;47474;48.824;9.384;2023-05-07T01:16:00;3.95;;;2.63;;
13785;SDS011;47474;48.824;9.384;2023-05-07T01:18:26;3.35;;;3.05;;
13785;SDS011;47474;48.824;9.384;2023-05-07T01:20:54;3.33;;;2.58;;
13785;SDS011;47474;48.824;9.384;2023-05-07T01:23:23;3.95;;;2.92;;
13785;SDS011;47474;48.824;9.384;2023-05-07T01:25:51;3.75;;;2.42;;
13785;SDS011;47474;48.824;9.384;2023-05-07T01:28:18;3.55;;;3.25;;
13785;SDS011;47474;48.824;9.384;2023-05-07T01:30:45;2.88;;;2.55;;
13785;SDS011;47474;48.824;9.384;2023-05-07T01:33:16;4.53;;;2.73;;
13785;SDS011;47474;48.824;9.384;2023-05-07T01:35:46;3.88;;;2.63;;
13785;SDS011;47474;48.824;9.384;2023-05-07T01:38:15;2.67;;;2.47;;
13785;SDS011;47474;48.824;9.384;2023-05-07T01:40:43;3.20;;;2.90;;
13785;SDS011;47474;48.824;9.384;2023-05-07T01:43:10;3.05;;;2.75;;
13785;SDS011;47474;48.824;9.384;2023-05-07T01:45:37;3.10;;;2.78;;
13785;SDS011;47474;48.824;9.384;2023-05-07T01:48:04;5.07;;;2.40;;
13785;SDS011;47474;48.824;9.384;2023-05-07T01:50:31;3.42;;;2.58;;
13785;SDS011;47474;48.824;9.384;2023-05-07T01:52:58;2.80;;;2.42;;
13785;SDS011;47474;48.824;9.384;2023-05-07T01:55:25;4.87;;;3.00;;
13785;SDS011;47474;48.824;9.384;2023-05-07T01:57:53;3.43;;;3.00;;
13785;SDS011;47474;48.824;9.384;2023-05-07T02:00:20;3.80;;;2.80;;
13785;SDS011;47474;48.824;9.384;2023-05-07T02:02:47;3.57;;;2.40;;
13785;SDS011;47474;48.824;9.384;2023-05-07T02:05:13;3.23;;;2.33;;
13785;SDS011;47474;48.824;9.384;2023-05-07T02:07:40;3.20;;;2.90;;
13785;SDS011;47474;48.824;9.384;2023-05-07T02:10:07;2.93;;;2.70;;
13785;SDS011;47474;48.824;9.384;2023-05-07T02:12:34;4.35;;;2.60;;
13785;SDS011;47474;48.824;9.384;2023-05-07T02:15:02;4.10;;;2.75;;
13785;SDS011;47474;48.824;9.384;2023-05-07T02:17:29;2.70;;;2.50;;
13785;SDS011;47474;48.824;9.384;2023-05-07T02:19:56;4.23;;;2.90;;
13785;SDS011;47474;48.824;9.384;2023-05-07T02:22:23;2.93;;;2.43;;
13785;SDS011;47474;48.824;9.384;2023-05-07T02:24:50;3.00;;;2.70;;
13785;SDS011;47474;48.824;9.384;2023-05-07T02:27:16;2.57;;;2.37;;
13785;SDS011;47474;48.824;9.384;2023-05-07T02:29:43;3.53;;;2.70;;
13785;SDS011;47474;48.824;9.384;2023-05-07T02:32:11;5.63;;;2.33;;
13785;SDS011;47474;48.824;9.384;2023-05-07T02:34:37;3.93;;;2.80;;
13785;SDS011;47474;48.824;9.384;2023-05-07T02:37:04;3.07;;;2.77;;
13785;SDS011;47474;48.824;9.384;2023-05-07T02:39:30;3.97;;;2.57;;
13785;SDS011;47474;48.824;9.384;2023-05-07T02:41:57;4.53;;;2.90;;
13785;SDS011;47474;48.824;9.384;2023-05-07T02:44:24;2.80;;;2.60;;
13785;SDS011;47474;48.824;9.384;2023-05-07T02:46:50;4.13;;;2.70;;
13785;SDS011;47474;48.824;9.384;2023-05-07T02:49:18;4.10;;;2.90;;
13785;SDS011;47474;48.824;9.384;2023-05-07T02:51:45;3.20;;;2.53;;
13785;SDS011;47474;48.824;9.384;2023-05-07T02:54:12;2.80;;;2.60;;
13785;SDS011;47474;48.824;9.384;2023-05-07T02:56:39;5.27;;;2.77;;
13785;SDS011;47474;48.824;9.384;2023-05-07T02:59:05;5.70;;;2.63;;
13785;SDS011;47474;48.824;9.384;2023-05-07T03:01:32;5.20;;;2.77;;
13785;SDS011;47474;48.824;9.384;2023-05-07T03:03:58;2.30;;;2.10;;
13785;SDS011;47474;48.824;9.384;2023-05-07T03:06:26;3.03;;;2.73;;
13785;SDS011;47474;48.824;9.384;2023-05-07T03:08:53;4.20;;;2.57;;
13785;SDS011;47474;48.824;9.384;2023-05-07T03:11:19;2.97;;;2.50;;
13785;SDS011;47474;48.824;9.384;2023-05-07T03:13:46;3.10;;;2.77;;
13785;SDS011;47474;48.824;9.384;2023-05-07T03:16:15;2.83;;;2.47;;
13785;SDS011;47474;48.824;9.384;2023-05-07T03:18:42;4.33;;;2.83;;
13785;SDS011;47474;48.824;9.384;2023-05-07T03:21:08;4.47;;;2.97;;
13785;SDS011;47474;48.824;9.384;2023-05-07T03:23:36;2.90;;;2.67;;
13785;SDS011;47474;48.824;9.384;2023-05-07T03:26:03;2.77;;;2.50;;
13785;SDS011;47474;48.824;9.384;2023-05-07T03:28:30;4.37;;;3.00;;
13785;SDS011;47474;48.824;9.384;2023-05-07T03:30:56;3.73;;;2.60;;
13785;SDS011;47474;48.824;9.384;2023-05-07T03:33:23;5.33;;;2.73;;
13785;SDS011;47474;48.824;9.384;2023-05-07T03:35:50;3.27;;;2.63;;
13785;SDS011;47474;48.824;9.384;2023-05-07T03:38:16;2.97;;;2.67;;
13785;SDS011;47474;48.824;9.384;2023-05-07T03:40:44;2.90;;;2.60;;
13785;SDS011;47474;48.824;9.384;2023-05-07T03:43:11;2.87;;;2.57;;
13785;SDS011;47474;48.824;9.384;2023-05-07T03:45:38;3.70;;;2.87;;
13785;SDS011;47474;48.824;9.384;2023-05-07T03:48:04;4.63;;;3.00;;
13785;SDS011;47474;48.824;9.384;2023-05-07T03:50:31;2.83;;;2.50;;
13785;SDS011;47474;48.824;9.384;2023-05-07T03:52:58;3.57;;;3.13;;
13785;SDS011;47474;48.824;9.384;2023-05-07T03:55:24;3.77;;;2.73;;
13785;SDS011;47474;48.824;9.384;2023-05-07T03:57:53;4.67;;;2.90;;
13785;SDS011;47474;48.824;9.384;2023-05-07T04:00:19;4.40;;;2.63;;
13785;SDS011;47474;48.824;9.384;2023-05-07T04:02:47;3.40;;;3.10;;
13785;SDS011;47474;48.824;9.384;2023-05-07T04:05:13;4.50;;;3.27;;
13785;SDS011;47474;48.824;9.384;2023-05-07T04:07:40;3.53;;;2.53;;
13785;SDS011;47474;48.824;9.384;2023-05-07T04:10:07;2.83;;;2.57;;
13785;SDS011;47474;48.824;9.384;2023-05-07T04:12:35;4.63;;;2.57;;
13785;SDS011;47474;48.824;9.384;2023-05-07T04:15:03;4.90;;;3.03;;
13785;SDS011;47474;48.824;9.384;2023-05-07T04:17:30;2.90;;;2.60;;
13785;SDS011;47474;48.824;9.384;2023-05-07T04:19:56;3.87;;;2.90;;
13785;SDS011;47474;48.824;9.384;2023-05-07T04:22:22;4.47;;;2.87;;
13785;SDS011;47474;48.824;9.384;2023-05-07T04:24:49;3.53;;;2.67;;
13785;SDS011;47474;48.824;9.384;2023-05-07T04:27:16;3.20;;;2.90;;
13785;SDS011;47474;48.824;9.384;2023-05-07T04:29:43;3.97;;;2.80;;
13785;SDS011;47474;48.824;9.384;2023-05-07T04:32:13;4.50;;;2.80;;
13785;SDS011;47474;48.824;9.384;2023-05-07T04:34:40;3.93;;;2.80;;
13785;SDS011;47474;48.824;9.384;2023-05-07T04:37:06;3.63;;;3.07;;
13785;SDS011;47474;48.824;9.384;2023-05-07T04:39:33;2.83;;;2.63;;
13785;SDS011;47474;48.824;9.384;2023-05-07T04:42:00;2.73;;;2.53;;
13785;SDS011;47474;48.824;9.384;2023-05-07T04:44:28;3.23;;;2.50;;
13785;SDS011;47474;48.824;9.384;2023-05-07T04:46:56;3.20;;;2.90;;
13785;SDS011;47474;48.824;9.384;2023-05-07T04:49:24;2.87;;;2.60;;
13785;SDS011;47474;48.824;9.384;2023-05-07T04:51:50;5.43;;;2.67;;
13785;SDS011;47474;48.824;9.384;2023-05-07T04:54:17;3.37;;;3.07;;
13785;SDS011;47474;48.824;9.384;2023-05-07T04:56:43;4.07;;;2.90;;
13785;SDS011;47474;48.824;9.384;2023-05-07T04:59:10;3.37;;;2.33;;
13785;SDS011;47474;48.824;9.384;2023-05-07T05:01:36;3.23;;;2.60;;
13785;SDS011;47474;48.824;9.384;2023-05-07T05:04:03;3.00;;;2.70;;
13785;SDS011;47474;48.824;9.384;2023-05-07T05:06:31;4.13;;;2.70;;
13785;SDS011;47474;48.824;9.384;2023-05-07T05:08:57;3.53;;;3.00;;
13785;SDS011;47474;48.824;9.384;2023-05-07T05:11:24;3.33;;;2.93;;
13785;SDS011;47474;48.824;9.384;2023-05-07T05:13:50;3.23;;;2.93;;
13785;SDS011;47474;48.824;9.384;2023-05-07T05:16:17;3.63;;;2.73;;
13785;SDS011;47474;48.824;9.384;2023-05-07T05:18:43;3.03;;;2.73;;
13785;SDS011;47474;48.824;9.384;2023-05-07T05:21:10;4.17;;;2.40;;
13785;SDS011;47474;48.824;9.384;2023-05-07T05:23:38;3.20;;;2.90;;
13785;SDS011;47474;48.824;9.384;2023-05-07T05:26:05;3.03;;;2.73;;
13785;SDS011;47474;48.824;9.384;2023-05-07T05:28:31;3.37;;;2.80;;
13785;SDS011;47474;48.824;9.384;2023-05-07T05:30:58;3.00;;;2.60;;
13785;SDS011;47474;48.824;9.384;2023-05-07T05:33:24;3.33;;;2.80;;
13785;SDS011;47474;48.824;9.384;2023-05-07T05:35:51;2.97;;;2.67;;
13785;SDS011;47474;48.824;9.384;2023-05-07T05:38:17;3.00;;;2.70;;
13785;SDS011;47474;48.824;9.384;2023-05-07T05:40:47;3.10;;;2.80;;
13785;SDS011;47474;48.824;9.384;2023-05-07T05:43:13;2.50;;;2.30;;
13785;SDS011;47474;48.824;9.384;2023-05-07T05:45:40;3.30;;;3.10;;
13785;SDS011;47474;48.824;9.384;2023-05-07T05:48:07;2.50;;;2.30;;
13785;SDS011;47474;48.824;9.384;2023-05-07T05:50:34;3.37;;;2.77;;
13785;SDS011;47474;48.824;9.384;2023-05-07T05:53:01;3.93;;;2.93;;
13785;SDS011;47474;48.824;9.384;2023-05-07T05:55:28;3.10;;;2.80;;
13785;SDS011;47474;48.824;9.384;2023-05-07T05:57:56;4.20;;;2.50;;
13785;SDS011;47474;48.824;9.384;2023-05-07T06:00:22;3.27;;;2.97;;
13785;SDS011;47474;48.824;9.384;2023-05-07T06:02:49;3.97;;;2.80;;
13785;SDS011;47474;48.824;9.384;2023-05-07T06:05:16;3.07;;;2.77;;
13785;SDS011;47474;48.824;9.384;2023-05-07T06:07:43;3.30;;;2.53;;
13785;SDS011;47474;48.824;9.384;2023-05-07T06:10:09;3.40;;;3.00;;
13785;SDS011;47474;48.824;9.384;2023-05-07T06:12:36;2.90;;;2.70;;
13785;SDS011;47474;48.824;9.384;2023-05-07T06:15:04;3.20;;;2.60;;
13785;SDS011;47474;48.824;9.384;2023-05-07T06:17:32;3.00;;;2.80;;
13785;SDS011;47474;48.824;9.384;2023-05-07T06:19:58;5.17;;;2.80;;
13785;SDS011;47474;48.824;9.384;2023-05-07T06:22:24;3.88;;;2.83;;
13785;SDS011;47474;48.824;9.384;2023-05-07T06:24:51;5.40;;;2.50;;
13785;SDS011;47474;48.824;9.384;2023-05-07T06:27:17;2.92;;;2.70;;
13785;SDS011;47474;48.824;9.384;2023-05-07T06:29:44;3.05;;;2.75;;
13785;SDS011;47474;48.824;9.384;2023-05-07T06:32:13;3.13;;;2.83;;
13785;SDS011;47474;48.824;9.384;2023-05-07T06:34:40;2.83;;;2.42;;
13785;SDS011;47474;48.824;9.384;2023-05-07T06:37:06;2.97;;;2.67;;
13785;SDS011;47474;48.824;9.384;2023-05-07T06:39:33;4.15;;;2.90;;
13785;SDS011;47474;48.824;9.384;2023-05-07T06:42:00;3.75;;;2.67;;
13785;SDS011;47474;48.824;9.384;2023-05-07T06:44:26;2.92;;;2.50;;
13785;SDS011;47474;48.824;9.384;2023-05-07T06:46:53;2.47;;;2.28;;
13785;SDS011;47474;48.824;9.384;2023-05-07T06:49:21;2.42;;;2.22;;
13785;SDS011;47474;48.824;9.384;2023-05-07T06:51:47;3.22;;;2.10;;
13785;SDS011;47474;48.824;9.384;2023-05-07T06:54:13;3.38;;;2.53;;
13785;SDS011;47474;48.824;9.384;2023-05-07T06:56:40;3.88;;;2.53;;
13785;SDS011;47474;48.824;9.384;2023-05-07T06:59:06;3.25;;;2.38;;
13785;SDS011;47474;48.824;9.384;2023-05-07T07:01:33;3.83;;;2.03;;
13785;SDS011;47474;48.824;9.384;2023-05-07T07:03:59;3.83;;;2.17;;
13785;SDS011;47474;48.824;9.384;2023-05-07T07:06:28;3.05;;;2.38;;
13785;SDS011;47474;48.824;9.384;2023-05-07T07:08:56;2.63;;;2.38;;
13785;SDS011;47474;48.824;9.384;2023-05-07T07:11:23;2.28;;;2.08;;
13785;SDS011;47474;48.824;9.384;2023-05-07T07:13:49;4.38;;;2.40;;
13785;SDS011;47474;48.824;9.384;2023-05-07T07:16:16;2.15;;;2.00;;
13785;SDS011;47474;48.824;9.384;2023-05-07T07:18:43;2.50;;;2.30;;
13785;SDS011;47474;48.824;9.384;2023-05-07T07:21:10;2.70;;;2.50;;
13785;SDS011;47474;48.824;9.384;2023-05-07T07:23:37;2.97;;;2.78;;
13785;SDS011;47474;48.824;9.384;2023-05-07T07:26:04;2.85;;;2.55;;
13785;SDS011;47474;48.824;9.384;2023-05-07T07:28:31;3.40;;;3.00;;
13785;SDS011;47474;48.824;9.384;2023-05-07T07:30:59;5.25;;;2.63;;
13785;SDS011;47474;48.824;9.384;2023-05-07T07:33:26;4.05;;;2.95;;
13785;SDS011;47474;48.824;9.384;2023-05-07T07:35:53;4.57;;;2.78;;
13785;SDS011;47474;48.824;9.384;2023-05-07T07:38:19;5.25;;;2.92;;
13785;SDS011;47474;48.824;9.384;2023-05-07T07:40:48;3.10;;;2.80;;
13785;SDS011;47474;48.824;9.384;2023-05-07T07:43:15;3.75;;;2.50;;
13785;SDS011;47474;48.824;9.384;2023-05-07T07:45:41;2.83;;;2.60;;
13785;SDS011;47474;48.824;9.384;2023-05-07T07:48:08;3.75;;;2.42;;
13785;SDS011;47474;48.824;9.384;2023-05-07T07:50:35;11.23;;;3.15;;
13785;SDS011;47474;48.824;9.384;2023-05-07T07:53:01;2.53;;;2.13;;
13785;SDS011;47474;48.824;9.384;2023-05-07T07:55:28;3.10;;;2.00;;
13785;SDS011;47474;48.824;9.384;2023-05-07T07:57:57;2.58;;;2.03;;
13785;SDS011;47474;48.824;9.384;2023-05-07T08:00:24;2.72;;;2.10;;
13785;SDS011;47474;48.824;9.384;2023-05-07T08:02:50;2.72;;;1.98;;
13785;SDS011;47474;48.824;9.384;2023-05-07T08:05:17;2.35;;;2.10;;
13785;SDS011;47474;48.824;9.384;2023-05-07T08:07:44;5.03;;;1.95;;
13785;SDS011;47474;48.824;9.384;2023-05-07T08:10:11;2.28;;;2.08;;
13785;SDS011;47474;48.824;9.384;2023-05-07T08:12:38;3.70;;;2.05;;
13785;SDS011;47474;48.824;9.384;2023-05-07T08:15:06;1.90;;;1.70;;
13785;SDS011;47474;48.824;9.384;2023-05-07T08:17:33;2.75;;;2.05;;
13785;SDS011;47474;48.824;9.384;2023-05-07T08:20:00;3.38;;;1.83;;
13785;SDS011;47474;48.824;9.384;2023-05-07T08:22:28;2.28;;;2.08;;
13785;SDS011;47474;48.824;9.384;2023-05-07T08:24:55;1.70;;;1.60;;
13785;SDS011;47474;48.824;9.384;2023-05-07T08:27:22;2.08;;;1.88;;
13785;SDS011;47474;48.824;9.384;2023-05-07T08:29:48;2.42;;;1.98;;
13785;SDS011;47474;48.824;9.384;2023-05-07T08:32:16;1.95;;;1.83;;
13785;SDS011;47474;48.824;9.384;2023-05-07T08:34:43;4.03;;;2.08;;
13785;SDS011;47474;48.824;9.384;2023-05-07T08:37:10;2.65;;;2.03;;
13785;SDS011;47474;48.824;9.384;2023-05-07T08:39:36;1.80;;;1.70;;
13785;SDS011;47474;48.824;9.384;2023-05-07T08:42:03;3.20;;;1.60;;
13785;SDS011;47474;48.824;9.384;2023-05-07T08:44:32;3.17;;;1.85;;
13785;SDS011;47474;48.824;9.384;2023-05-07T08:46:59;2.65;;;1.65;;
13785;SDS011;47474;48.824;9.384;2023-05-07T08:49:28;2.30;;;2.10;;
13785;SDS011;47474;48.824;9.384;2023-05-07T08:51:55;4.85;;;2.38;;
13785;SDS011;47474;48.824;9.384;2023-05-07T08:54:21;2.13;;;1.75;;
13785;SDS011;47474;48.824;9.384;2023-05-07T08:56:48;3.63;;;2.10;;
13785;SDS011;47474;48.824;9.384;2023-05-07T08:59:15;2.25;;;2.05;;
13785;SDS011;47474;48.824;9.384;2023-05-07T09:01:41;2.30;;;2.10;;
13785;SDS011;47474;48.824;9.384;2023-05-07T09:04:08;2.55;;;1.95;;
13785;SDS011;47474;48.824;9.384;2023-05-07T09:06:36;2.80;;;2.15;;
13785;SDS011;47474;48.824;9.384;2023-05-07T09:09:03;3.60;;;2.20;;
13785;SDS011;47474;48.824;9.384;2023-05-07T09:11:30;1.95;;;1.75;;
13785;SDS011;47474;48.824;9.384;2023-05-07T09:13:57;2.47;;;1.85;;
13785;SDS011;47474;48.824;9.384;2023-05-07T09:16:26;1.90;;;1.70;;
13785;SDS011;47474;48.824;9.384;2023-05-07T09:18:53;2.45;;;1.92;;
13785;SDS011;47474;48.824;9.384;2023-05-07T09:21:20;1.77;;;1.67;;
13785;SDS011;47474;48.824;9.384;2023-05-07T09:23:49;2.38;;;2.17;;
13785;SDS011;47474;48.824;9.384;2023-05-07T09:26:17;3.85;;;1.88;;
13785;SDS011;47474;48.824;9.384;2023-05-07T09:28:44;2.33;;;1.88;;
13785;SDS011;47474;48.824;9.384;2023-05-07T09:31:11;2.40;;;2.05;;
13785;SDS011;47474;48.824;9.384;2023-05-07T09:33:38;2.17;;;1.80;;
13785;SDS011;47474;48.824;9.384;2023-05-07T09:36:05;2.13;;;1.85;;
13785;SDS011;47474;48.824;9.384;2023-05-07T09:38:34;2.63;;;1.77;;
13785;SDS011;47474;48.824;9.384;2023-05-07T09:41:03;2.63;;;1.73;;
13785;SDS011;47474;48.824;9.384;2023-05-07T09:43:33;3.38;;;1.95;;
13785;SDS011;47474;48.824;9.384;2023-05-07T09:46:02;2.20;;;2.00;;
13785;SDS011;47474;48.824;9.384;2023-05-07T09:48:29;2.50;;;2.10;;
13785;SDS011;47474;48.824;9.384;2023-05-07T09:50:56;2.70;;;2.50;;
13785;SDS011;47474;48.824;9.384;2023-05-07T09:53:23;3.53;;;2.00;;
13785;SDS011;47474;48.824;9.384;2023-05-07T09:55:50;4.20;;;1.70;;
13785;SDS011;47474;48.824;9.384;2023-05-07T09:58:19;2.88;;;1.80;;
13785;SDS011;47474;48.824;9.384;2023-05-07T10:00:47;2.55;;;1.88;;
13785;SDS011;47474;48.824;9.384;2023-05-07T10:03:14;1.70;;;1.60;;
13785;SDS011;47474;48.824;9.384;2023-05-07T10:05:41;2.67;;;1.80;;
13785;SDS011;47474;48.824;9.384;2023-05-07T10:08:09;2.40;;;2.10;;
13785;SDS011;47474;48.824;9.384;2023-05-07T10:10:36;4.15;;;2.15;;
13785;SDS011;47474;48.824;9.384;2023-05-07T10:13:03;2.67;;;1.90;;
13785;SDS011;47474;48.824;9.384;2023-05-07T10:15:32;2.45;;;1.50;;
13785;SDS011;47474;48.824;9.384;2023-05-07T10:17:58;2.38;;;1.52;;
13785;SDS011;47474;48.824;9.384;2023-05-07T10:20:25;2.38;;;1.55;;
13785;SDS011;47474;48.824;9.384;2023-05-07T10:22:52;1.67;;;1.52;;
13785;SDS011;47474;48.824;9.384;2023-05-07T10:25:21;2.50;;;1.80;;
13785;SDS011;47474;48.824;9.384;2023-05-07T10:27:49;2.38;;;1.85;;
13785;SDS011;47474;48.824;9.384;2023-05-07T10:30:19;2.83;;;1.75;;
13785;SDS011;47474;48.824;9.384;2023-05-07T10:32:55;3.13;;;1.80;;
13785;SDS011;47474;48.824;9.384;2023-05-07T10:35:24;3.03;;;1.70;;
13785;SDS011;47474;48.824;9.384;2023-05-07T10:37:52;2.00;;;1.80;;
13785;SDS011;47474;48.824;9.384;2023-05-07T10:40:19;1.98;;;1.70;;
13785;SDS011;47474;48.824;9.384;2023-05-07T10:42:55;2.03;;;1.83;;
13785;SDS011;47474;48.824;9.384;2023-05-07T10:45:23;1.67;;;1.50;;
13785;SDS011;47474;48.824;9.384;2023-05-07T10:48:07;1.80;;;1.70;;
13785;SDS011;47474;48.824;9.384;2023-05-07T10:50:35;2.03;;;1.67;;
13785;SDS011;47474;48.824;9.384;2023-05-07T10:53:21;1.85;;;1.75;;
13785;SDS011;47474;48.824;9.384;2023-05-07T10:55:51;2.92;;;1.70;;
13785;SDS011;47474;48.824;9.384;2023-05-07T10:58:24;3.85;;;1.73;;
13785;SDS011;47474;48.824;9.384;2023-05-07T11:00:55;2.63;;;1.77;;
13785;SDS011;47474;48.824;9.384;2023-05-07T11:03:23;1.75;;;1.60;;
13785;SDS011;47474;48.824;9.384;2023-05-07T11:08:53;7.55;;;1.80;;
13785;SDS011;47474;48.824;9.384;2023-05-07T11:11:27;1.70;;;1.50;;
13785;SDS011;47474;48.824;9.384;2023-05-07T11:14:10;1.92;;;1.38;;
13785;SDS011;47474;48.824;9.384;2023-05-07T11:16:36;2.33;;;1.70;;
13785;SDS011;47474;48.824;9.384;2023-05-07T11:19:05;1.73;;;1.45;;
13785;SDS011;47474;48.824;9.384;2023-05-07T11:21:32;2.38;;;1.75;;
13785;SDS011;47474;48.824;9.384;2023-05-07T11:23:59;2.20;;;1.55;;
13785;SDS011;47474;48.824;9.384;2023-05-07T11:26:27;1.77;;;1.67;;
13785;SDS011;47474;48.824;9.384;2023-05-07T11:28:56;1.50;;;1.40;;
13785;SDS011;47474;48.824;9.384;2023-05-07T11:31:24;3.15;;;1.90;;
13785;SDS011;47474;48.824;9.384;2023-05-07T11:33:52;2.50;;;1.45;;
13785;SDS011;47474;48.824;9.384;2023-05-07T11:36:21;2.15;;;1.70;;
13785;SDS011;47474;48.824;9.384;2023-05-07T11:38:48;1.63;;;1.52;;
13785;SDS011;47474;48.824;9.384;2023-05-07T11:41:15;2.80;;;1.65;;
13785;SDS011;47474;48.824;9.384;2023-05-07T11:43:55;2.33;;;1.75;;
13785;SDS011;47474;48.824;9.384;2023-05-07T11:46:22;2.08;;;1.77;;
13785;SDS011;47474;48.824;9.384;2023-05-07T11:48:48;2.28;;;1.52;;
13785;SDS011;47474;48.824;9.384;2023-05-07T11:51:18;2.47;;;1.85;;
13785;SDS011;47474;48.824;9.384;2023-05-07T11:53:46;3.78;;;1.52;;
13785;SDS011;47474;48.824;9.384;2023-05-07T11:56:13;2.65;;;1.52;;
13785;SDS011;47474;48.824;9.384;2023-05-07T11:58:41;1.85;;;1.75;;
13785;SDS011;47474;48.824;9.384;2023-05-07T12:01:08;2.25;;;1.55;;
13785;SDS011;47474;48.824;9.384;2023-05-07T12:03:36;2.00;;;1.80;;
13785;SDS011;47474;48.824;9.384;2023-05-07T12:06:04;1.92;;;1.63;;
13785;SDS011;47474;48.824;9.384;2023-05-07T12:08:32;1.65;;;1.55;;
13785;SDS011;47474;48.824;9.384;2023-05-07T12:11:00;2.33;;;1.60;;
13785;SDS011;47474;48.824;9.384;2023-05-07T12:13:26;2.03;;;1.77;;
13785;SDS011;47474;48.824;9.384;2023-05-07T12:15:53;3.47;;;1.80;;
13785;SDS011;47474;48.824;9.384;2023-05-07T12:18:20;2.17;;;1.70;;
13785;SDS011;47474;48.824;9.384;2023-05-07T12:20:47;2.40;;;1.45;;
13785;SDS011;47474;48.824;9.384;2023-05-07T12:23:14;1.80;;;1.60;;
13785;SDS011;47474;48.824;9.384;2023-05-07T12:25:41;1.40;;;1.30;;
13785;SDS011;47474;48.824;9.384;2023-05-07T12:28:13;2.95;;;1.63;;
13785;SDS011;47474;48.824;9.384;2023-05-07T12:30:40;2.58;;;1.75;;
13785;SDS011;47474;48.824;9.384;2023-05-07T12:33:08;4.43;;;1.80;;
13785;SDS011;47474;48.824;9.384;2023-05-07T12:35:36;1.50;;;1.40;;
13785;SDS011;47474;48.824;9.384;2023-05-07T12:38:07;1.92;;;1.73;;
13785;SDS011;47474;48.824;9.384;2023-05-07T12:40:37;2.10;;;1.98;;
13785;SDS011;47474;48.824;9.384;2023-05-07T12:43:05;1.90;;;1.60;;
13785;SDS011;47474;48.824;9.384;2023-05-07T12:45:33;2.95;;;1.73;;
13785;SDS011;47474;48.824;9.384;2023-05-07T12:48:03;1.88;;;1.70;;
13785;SDS011;47474;48.824;9.384;2023-05-07T12:50:32;1.58;;;1.48;;
13785;SDS011;47474;48.824;9.384;2023-05-07T12:52:59;2.60;;;1.30;;
13785;SDS011;47474;48.824;9.384;2023-05-07T12:55:28;3.38;;;2.47;;
13785;SDS011;47474;48.824;9.384;2023-05-07T12:57:55;2.72;;;1.90;;
13785;SDS011;47474;48.824;9.384;2023-05-07T13:00:37;2.45;;;2.25;;
13785;SDS011;47474;48.824;9.384;2023-05-07T13:03:04;2.50;;;2.00;;
13785;SDS011;47474;48.824;9.384;2023-05-07T13:05:31;2.22;;;1.83;;
13785;SDS011;47474;48.824;9.384;2023-05-07T13:07:58;2.00;;;1.70;;
13785;SDS011;47474;48.824;9.384;2023-05-07T13:10:25;3.40;;;2.47;;
13785;SDS011;47474;48.824;9.384;2023-05-07T13:12:51;2.47;;;1.55;;
13785;SDS011;47474;48.824;9.384;2023-05-07T13:15:18;1.65;;;1.55;;
13785;SDS011;47474;48.824;9.384;2023-05-07T13:17:46;1.60;;;1.50;;
13785;SDS011;47474;48.824;9.384;2023-05-07T13:20:13;3.50;;;1.95;;
13785;SDS011;47474;48.824;9.384;2023-05-07T13:22:40;2.10;;;1.77;;
13785;SDS011;47474;48.824;9.384;2023-05-07T13:25:07;2.53;;;1.95;;
13785;SDS011;47474;48.824;9.384;2023-05-07T13:27:34;3.53;;;1.90;;
13785;SDS011;47474;48.824;9.384;2023-05-07T13:30:02;2.75;;;1.80;;
13785;SDS011;47474;48.824;9.384;2023-05-07T13:32:29;3.20;;;1.83;;
13785;SDS011;47474;48.824;9.384;2023-05-07T13:34:57;1.70;;;1.60;;
13785;SDS011;47474;48.824;9.384;2023-05-07T13:37:24;5.93;;;2.55;;
13785;SDS011;47474;48.824;9.384;2023-05-07T13:39:50;5.10;;;2.50;;
13785;SDS011;47474;48.824;9.384;2023-05-07T13:42:17;7.80;;;2.67;;
13785;SDS011;47474;48.824;9.384;2023-05-07T13:44:43;4.93;;;2.13;;
13785;SDS011;47474;48.824;9.384;2023-05-07T13:47:10;5.57;;;2.47;;
13785;SDS011;47474;48.824;9.384;2023-05-07T13:49:36;4.15;;;1.85;;
13785;SDS011;47474;48.824;9.384;2023-05-07T13:52:04;2.65;;;1.40;;
13785;SDS011;47474;48.824;9.384;2023-05-07T13:54:31;1.92;;;1.65;;
13785;SDS011;47474;48.824;9.384;2023-05-07T13:56:57;2.35;;;1.70;;
13785;SDS011;47474;48.824;9.384;2023-05-07T13:59:24;1.58;;;1.40;;
13785;SDS011;47474;48.824;9.384;2023-05-07T14:01:50;2.25;;;1.92;;
13785;SDS011;47474;48.824;9.384;2023-05-07T14:04:17;1.92;;;1.58;;
13785;SDS011;47474;48.824;9.384;2023-05-07T14:06:43;2.88;;;1.50;;
13785;SDS011;47474;48.824;9.384;2023-05-07T14:09:11;2.30;;;1.95;;
13785;SDS011;47474;48.824;9.384;2023-05-07T14:11:38;2.42;;;1.85;;
13785;SDS011;47474;48.824;9.384;2023-05-07T14:14:04;3.08;;;2.25;;
13785;SDS011;47474;48.824;9.384;2023-05-07T14:16:31;3.60;;;2.30;;
13785;SDS011;47474;48.824;9.384;2023-05-07T14:18:57;2.60;;;2.40;;
13785;SDS011;47474;48.824;9.384;2023-05-07T14:21:24;2.97;;;2.33;;
13785;SDS011;47474;48.824;9.384;2023-05-07T14:23:50;3.78;;;2.55;;
13785;SDS011;47474;48.824;9.384;2023-05-07T14:26:18;1.75;;;1.65;;
13785;SDS011;47474;48.824;9.384;2023-05-07T14:28:47;1.63;;;1.52;;
13785;SDS011;47474;48.824;9.384;2023-05-07T14:31:14;2.78;;;1.75;;
13785;SDS011;47474;48.824;9.384;2023-05-07T14:33:41;2.22;;;2.03;;
13785;SDS011;47474;48.824;9.384;2023-05-07T14:36:07;3.38;;;2.65;;
13785;SDS011;47474;48.824;9.384;2023-05-07T14:38:34;2.28;;;2.08;;
13785;SDS011;47474;48.824;9.384;2023-05-07T14:41:00;2.67;;;2.30;;
13785;SDS011;47474;48.824;9.384;2023-05-07T14:43:28;3.10;;;2.30;;
13785;SDS011;47474;48.824;9.384;2023-05-07T14:45:55;2.25;;;2.05;;
13785;SDS011;47474;48.824;9.384;2023-05-07T14:48:21;2.80;;;2.00;;
13785;SDS011;47474;48.824;9.384;2023-05-07T14:50:48;2.08;;;1.77;;